KSMX/SMX METAR and TAF weather

Enter ICAO airport designator
Station Type Date Time Source
KSMX METAR 2021/08/04 18:51 UTC NOAA

KSMX 041851Z 30010KT 8SM SCT012 18/13 A2999 RMK AO2 SLP155 T01830128


Station Type Date Time Source
KSMX Decoded METAR 2021/08/04 18:51 UTC NOAA

SANTA MARIA PUBLIC AIRPORT, CA, United States (KSMX) 34-54N 120-28W 74M
Aug 04, 2021 - 02:51 PM EDT / 2021.08.04 1851 UTC
Wind: from the WNW (300 degrees) at 12 MPH (10 KT):0
Visibility: 8 mile(s):0
Sky conditions: partly cloudy
Temperature: 64.9 F (18.3 C)
Dew Point: 55.0 F (12.8 C)
Relative Humidity: 70%
Pressure (altimeter): 29.99 in. Hg (1015 hPa)
ob: KSMX 041851Z 30010KT 8SM SCT012 18/13 A2999 RMK AO2 SLP155 T01830128
cycle: 19

Station Type Date Time Source
KSMX TAF 2021/08/04 18:48 UTC NOAA

TAF KSMX 041746Z 0418/0518 30012KT P6SM SKC
FM050400 31006KT P6SM OVC006
FM050800 30005KT 5SM BR OVC004
FM051500 VRB03KT P6SM OVC006
FM051700 VRB03KT P6SM SCT010

Example: see airport list